Latest Coastal Weather Observations for Swan Island

IDT60701

Issued at 12:32 pm EDT Friday 19 December 2014 (issued every 10 minutes, with the page automatically refreshed every 10 minutes)

About coastal observations | Map of coastal stations | Coastal observations for TAS | Marine services | Other Formats
Station Details ID: 092123 Name: SWAN ISLAND Lat: -40.73 Lon: 148.12 Height: 15.0 m
Data from the previous 72 hours. | See also: Recent months at Swan Island
Date/Time
EDT
Temp

°C
Wind Pressure Rain
since 9am
mm
Weather Cloud Vis
km
Sea
Height
m
Swell
Dir
 
Speed
knots
Gust
knots
hPa Trend Height
m
Period
s
Dir
19/12:30pm 17.8 NW 10 13 1012.5 - 0.0 - - - - - - -
19/12:00pm 16.6 NW 9 11 1012.6 - 0.0 - - - - - - -
19/11:30am 16.8 NW 8 11 1012.4 - 0.0 - - - - - - -
19/11:00am 16.8 NW 6 9 1012.5 - 0.0 - - - - - - -
19/10:30am 15.9 NW 6 9 1012.5 - 0.0 - - - - - - -
19/10:00am 16.0 NW 7 10 1012.5 - 0.0 - - - - - - -
19/09:30am 15.9 NW 5 9 1012.2 - 0.0 - - - - - - -
19/09:00am 15.5 ENE 2 3 1012.2 - 0.0 - - - - - - -
19/08:30am 15.7 S 3 6 1011.9 - 0.0 - - - - - - -
19/08:00am 14.0 SW 3 6 1011.5 - 0.0 - - - - - - -
19/07:30am 13.1 SW 3 6 1011.1 - 0.0 - - - - - - -
19/07:00am 12.2 WSW 6 8 1010.7 - 0.0 - - - - - - -
19/06:30am 11.3 WSW 7 10 1010.4 - 0.0 - - - - - - -
19/06:00am 10.9 WSW 5 8 1010.0 - 0.0 - - - - - - -
19/05:30am 11.4 WSW 8 11 1009.6 - 0.0 - - - - - - -
19/05:00am 11.7 W 9 14 1009.1 - 0.0 - - - - - - -
19/04:30am 11.5 W 9 13 1008.7 - 0.0 - - - - - - -
19/04:00am 11.7 W 10 16 1008.3 - 0.0 - - - - - - -
19/03:30am 11.7 WSW 9 14 1008.2 - 0.0 - - - - - - -
19/03:00am 11.9 WSW 8 12 1008.1 - 0.0 - - - - - - -
19/02:30am 12.4 WSW 7 11 1007.9 - 0.0 - - - - - - -
19/02:00am 12.7 WSW 10 14 1007.7 - 0.0 - - - - - - -
19/01:30am 13.0 WSW 10 15 1007.7 - 0.0 - - - - - - -
19/01:00am 13.7 WSW 8 11 1007.6 - 0.0 - - - - - - -
19/12:30am 14.9 W 15 23 1007.3 - 0.0 - - - - - - -
19/12:00am 14.9 W 16 22 1007.2 - 0.0 - - - - - - -
 
Date/Time
EDT
Temp

°C
Wind Pressure Rain
since 9am
mm
Weather Cloud Vis
km
Sea
Height
m
Swell
Dir
 
Speed
knots
Gust
knots
hPa Trend Height
m
Period
s
Dir
18/11:30pm 14.9 W 15 21 1007.0 - 0.0 - - - - - - -
18/11:00pm 15.1 W 18 25 1006.7 - 0.0 - - - - - - -
18/10:30pm 15.1 W 18 24 1006.5 - 0.0 - - - - - - -
18/10:00pm 15.3 W 18 25 1006.1 - 0.0 - - - - - - -
18/09:30pm 15.0 W 22 28 1005.7 - 0.0 - - - - - - -
18/09:00pm 14.8 W 19 27 1005.2 - 0.0 - - - - - - -
18/08:30pm 14.7 W 18 30 1005.2 - 0.0 - - - - - - -
18/08:25pm 14.9 W 19 30 1005.2 - 0.0 - - - - - - -
18/08:00pm 15.0 W 16 23 1005.1 - 0.0 - - - - - - -
18/07:30pm 15.3 W 18 25 1004.7 - 0.0 - - - - - - -
18/07:00pm 16.3 W 17 23 1004.1 - 0.0 - - - - - - -
18/06:30pm 16.7 W 18 24 1003.7 - 0.0 - - - - - - -
18/06:00pm 16.3 W 19 26 1003.5 - 0.0 - - - - - - -
18/05:33pm 17.8 W 17 27 1003.3 - 0.0 - - - - - - -
18/05:30pm 18.2 WNW 16 26 1003.3 - 0.0 - - - - - - -
18/05:29pm 17.9 WNW 15 26 1003.4 - 0.0 - - - - - - -
18/05:00pm 18.6 WNW 19 28 1003.1 - 0.0 - - - - - - -
18/04:48pm 18.2 WNW 20 31 1003.1 - 0.0 - - - - - - -
18/04:30pm 17.4 WNW 20 27 1002.9 - 0.0 - - - - - - -
18/04:00pm 18.1 NW 19 25 1002.7 - 0.0 - - - - - - -
18/03:30pm 18.3 NW 17 22 1002.8 - 0.0 - - - - - - -
18/03:00pm 19.4 NW 17 21 1002.6 - 0.0 - - - - - - -
18/02:30pm 19.5 NW 16 20 1002.7 - 0.0 - - - - - - -
18/02:00pm 20.6 WNW 10 16 1002.9 - 0.0 - - - - - - -
18/01:30pm 20.6 NW 7 10 1003.2 - 0.0 - - - - - - -
18/01:00pm 21.3 NNE 9 12 1003.3 - 0.0 - - - - - - -
18/12:30pm 19.9 NNE 12 17 1003.6 - 0.0 - - - - - - -
18/12:00pm 19.4 NNE 11 16 1003.9 - 0.0 - - - - - - -
18/11:30am 18.1 N 12 16 1004.3 - 0.0 - - - - - - -
18/11:00am 17.6 NNW 9 12 1004.7 - 0.0 - - - - - - -
18/10:30am 18.1 N 10 13 1005.1 - 0.0 - - - - - - -
18/10:00am 17.7 N 11 14 1005.5 - 0.0 - - - - - - -
18/09:30am 18.1 N 8 9 1005.9 - 0.0 - - - - - - -
18/09:00am 18.2 N 13 17 1006.1 - 0.0 - - - - - - -
18/08:30am 17.4 N 14 17 1006.3 - 0.0 - - - - - - -
18/08:00am 16.5 N 14 16 1006.2 - 0.0 - - - - - - -
18/07:30am 15.9 N 16 18 1006.3 - 0.0 - - - - - - -
18/07:00am 15.4 N 16 19 1006.4 - 0.0 - - - - - - -
18/06:30am 15.4 N 15 18 1006.4 - 0.0 - - - - - - -
18/06:00am 15.3 NNW 16 19 1006.4 - 0.0 - - - - - - -
18/05:30am 15.2 NNW 18 21 1006.5 - 0.0 - - - - - - -
18/05:00am 15.3 NNW 17 20 1006.3 - 0.0 - - - - - - -
18/04:30am 15.1 NNW 16 19 1006.2 - 0.0 - - - - - - -
18/04:00am 14.9 NW 15 18 1006.1 - 0.0 - - - - - - -
18/03:30am 14.7 NW 14 17 1006.0 - 0.0 - - - - - - -
18/03:00am 14.8 NNW 14 17 1006.2 - 0.0 - - - - - - -
18/02:30am 14.5 NW 11 14 1006.1 - 0.0 - - - - - - -
18/02:00am 14.4 NW 11 16 1006.3 - 0.0 - - - - - - -
18/01:30am 14.4 WNW 10 13 1006.5 - 0.0 - - - - - - -
18/01:00am 14.6 WNW 11 15 1006.5 - 0.0 - - - - - - -
18/12:30am 14.8 WNW 12 18 1006.6 - 0.0 - - - - - - -
18/12:00am 14.7 WNW 13 19 1006.7 - 0.0 - - - - - - -
 
Date/Time
EDT
Temp

°C
Wind Pressure Rain
since 9am
mm
Weather Cloud Vis
km
Sea
Height
m
Swell
Dir
 
Speed
knots
Gust
knots
hPa Trend Height
m
Period
s
Dir
17/11:30pm 14.7 WNW 12 17 1006.9 - 0.0 - - - - - - -
17/11:00pm 14.6 WNW 11 17 1007.2 - 0.0 - - - - - - -
17/10:30pm 14.5 WNW 12 19 1007.4 - 0.0 - - - - - - -
17/10:00pm 14.9 WNW 13 19 1007.6 - 0.0 - - - - - - -
17/09:30pm 14.8 WNW 15 20 1007.3 - 0.0 - - - - - - -
17/09:00pm 14.8 WNW 14 21 1007.0 - 0.0 - - - - - - -
17/08:30pm 14.9 WNW 15 22 1007.1 - 0.0 - - - - - - -
17/08:00pm 15.0 WNW 14 21 1006.9 - 0.0 - - - - - - -
17/07:30pm 15.6 WNW 15 23 1006.7 - 0.0 - - - - - - -
17/07:00pm 16.0 WNW 15 22 1006.4 - 0.0 - - - - - - -
17/06:30pm 16.5 WNW 14 22 1006.1 - 0.0 - - - - - - -
17/06:00pm 16.6 WNW 16 23 1005.9 - 0.0 - - - - - - -
17/05:30pm 17.2 WNW 16 25 1006.0 - 0.0 - - - - - - -
17/05:00pm 17.6 WNW 16 24 1006.0 - 0.0 - - - - - - -
17/04:30pm 17.3 WNW 17 24 1005.7 - 0.0 - - - - - - -
17/04:00pm 18.1 WNW 17 24 1005.7 - 0.0 - - - - - - -
17/03:30pm 17.6 WNW 18 25 1005.8 - 0.0 - - - - - - -
17/03:05pm 18.0 WNW 17 28 1006.0 - 0.0 - - - - - - -
17/03:00pm 18.0 WNW 18 27 1005.8 - 0.0 - - - - - - -
17/02:30pm 17.1 WNW 19 27 1005.4 - 0.0 - - - - - - -
17/02:00pm 17.4 WNW 18 27 1005.6 - 0.0 - - - - - - -
17/01:38pm 18.0 WNW 16 27 1005.5 - 0.0 - - - - - - -
17/01:30pm 17.4 WNW 18 27 1005.5 - 0.0 - - - - - - -
17/01:11pm 17.9 WNW 15 25 1005.5 - 0.0 - - - - - - -
17/01:00pm 18.1 WNW 18 25 1005.4 - 0.0 - - - - - - -
17/12:30pm 17.1 WNW 18 27 1005.5 - 0.0 - - - - - - -
17/12:00pm 17.8 WNW 17 24 1005.4 - 0.0 - - - - - - -
17/11:30am 17.0 WNW 16 26 1004.9 - 0.0 - - - - - - -
17/11:20am 16.7 WNW 15 25 1004.8 - 0.0 - - - - - - -
17/11:00am 16.9 WNW 15 24 1004.7 - 0.0 - - - - - - -
17/10:30am 16.9 WNW 15 23 1004.3 - 0.0 - - - - - - -
17/10:00am 16.9 W 17 23 1004.3 - 0.0 - - - - - - -
17/09:30am 15.9 W 18 24 1003.9 - 0.0 - - - - - - -
17/09:00am 15.7 W 18 25 1003.5 - 3.4 - - - - - - -
17/08:37am 15.3 W 16 27 1003.3 - 3.4 - - - - - - -
17/08:30am 15.4 W 16 23 1003.3 - 3.4 - - - - - - -
17/08:00am 14.8 W 18 25 1002.8 - 3.4 - - - - - - -
17/07:30am 14.2 W 21 28 1002.1 - 3.4 - - - - - - -
17/07:15am 14.3 W 18 29 1001.8 - 3.4 - - - - - - -
17/07:00am 14.1 W 15 24 1001.5 - 3.4 - - - - - - -
17/06:47am 13.8 W 15 25 1001.4 - 3.4 - - - - - - -
17/06:30am 13.8 W 18 26 1001.0 - 3.4 - - - - - - -
17/06:00am 13.5 W 20 27 1000.5 - 3.4 - - - - - - -
17/05:30am 13.4 W 20 27 999.8 - 3.4 - - - - - - -
17/05:00am 13.3 W 20 28 999.2 - 3.4 - - - - - - -
17/04:35am 13.5 W 19 29 998.9 - 3.4 - - - - - - -
17/04:30am 13.4 W 22 29 998.7 - 3.4 - - - - - - -
17/04:00am 13.4 WNW 21 31 997.9 - 3.4 - - - - - - -
17/03:59am 13.4 WNW 20 31 997.9 - 3.4 - - - - - - -
17/03:30am 13.7 W 23 31 997.5 - 3.4 - - - - - - -
17/03:00am 13.8 W 25 36 997.1 - 3.4 - - - - - - -
17/02:33am 14.0 W 25 35 996.8 - 3.4 - - - - - - -
17/02:30am 14.2 W 26 35 996.7 - 3.4 - - - - - - -
17/02:07am 14.1 W 26 36 996.4 - 3.4 - - - - - - -
17/02:00am 14.2 W 27 36 996.4 - 3.4 - - - - - - -
17/01:30am 14.2 W 28 39 995.7 - 3.4 - - - - - - -
17/01:20am 14.3 W 27 37 995.6 - 3.4 - - - - - - -
17/01:00am 14.3 W 30 39 995.1 - 3.4 - - - - - - -
17/12:30am 14.4 W 24 39 994.9 - 3.4 - - - - - - -
17/12:00am 14.4 WNW 23 36 994.6 - 3.4 Recent precip. - - - - - -
 
Date/Time
EDT
Temp

°C
Wind Pressure Rain
since 9am
mm
Weather Cloud Vis
km
Sea
Height
m
Swell
Dir
 
Speed
knots
Gust
knots
hPa Trend Height
m
Period
s
Dir
16/11:30pm 14.1 WNW 25 36 994.3 - 3.4 - - - - - - -
16/11:00pm 13.8 WNW 27 45 994.0 - 3.2 - - - - - - -
16/10:51pm 14.5 WNW 29 45 993.9 - 3.2 - - - - - - -
16/10:32pm 14.8 WNW 24 34 993.9 - 3.2 - - - - - - -
16/10:30pm 14.7 WNW 25 34 993.8 - 3.2 - - - - - - -
16/10:00pm 14.4 WNW 21 32 993.9 - 3.2 - - - - - - -
16/09:38pm 14.9 WNW 25 39 993.8 - 3.2 - - - - - - -
16/09:30pm 15.3 NW 26 35 993.4 - 3.2 - - - - - - -
16/09:04pm 14.8 NW 23 33 993.6 - 3.2 - - - - - - -
16/09:00pm 14.6 NW 23 31 993.8 - 3.2 Recent precip. - - - - - -
16/08:30pm 14.0 NW 21 30 993.8 - 2.8 - - - - - - -
16/08:00pm 14.2 WNW 24 31 993.0 - 1.2 - - - - - - -
16/07:38pm 15.0 WNW 24 34 992.3 - 0.6 - - - - - - -
16/07:30pm 15.9 WNW 25 34 992.7 - 0.4 - - - - - - -
16/07:06pm 15.9 WNW 17 28 991.9 - 0.4 - - - - - - -
16/07:00pm 16.0 WNW 16 24 991.7 - 0.4 - - - - - - -
16/06:30pm 16.9 WNW 17 25 991.4 - 0.0 - - - - - - -
16/06:17pm 17.1 WNW 17 27 991.4 - 0.0 - - - - - - -
16/06:00pm 17.3 WNW 14 19 991.0 - 0.0 - - - - - - -
16/05:30pm 17.7 WNW 14 21 990.2 - 0.0 - - - - - - -
16/05:04pm 18.7 WNW 18 28 990.1 - 0.0 - - - - - - -
16/05:00pm 18.4 WNW 21 29 990.4 - 0.0 - - - - - - -
16/04:30pm 18.0 WNW 18 30 990.6 - 0.0 - - - - - - -
16/04:23pm 17.9 WNW 20 30 990.6 - 0.0 - - - - - - -
16/04:00pm 18.1 NW 17 24 990.7 - 0.0 - - - - - - -
16/03:30pm 19.3 NW 12 16 990.0 - 0.0 - - - - - - -
16/03:00pm 18.5 NW 16 23 990.9 - 0.0 - - - - - - -
16/02:30pm 18.1 NW 18 27 991.2 - 0.0 - - - - - - -
16/02:00pm 19.1 NW 22 30 991.2 - 0.0 - - - - - - -
16/01:30pm 21.2 NNW 22 32 991.0 - 0.0 - - - - - - -
16/01:27pm 21.3 NNW 20 31 990.9 - 0.0 - - - - - - -
16/01:00pm 22.4 N 18 23 991.2 - 0.0 - - - - - - -

Other Formats:

Comma delimited format used in spreadsheet applications
http://www.bom.gov.au/fwo/IDT60701/IDT60701.95985.axf

JavaScript Object Notation format (JSON) in row-major order
http://www.bom.gov.au/fwo/IDT60701/IDT60701.95985.json